createdAt,value
2023-02-11T00:00:51.354Z,31.02
2023-02-11T00:01:53.157Z,37.22
2023-02-11T00:02:54.742Z,42.38
2023-02-11T00:03:57.276Z,37.05
2023-02-11T00:05:01.486Z,38.05
2023-02-11T00:06:09.288Z,37.95
2023-02-11T00:07:10.834Z,36.05
2023-02-11T00:08:17.002Z,40.55
2023-02-11T00:09:18.556Z,35.22
2023-02-11T00:10:20.131Z,35.25
2023-02-11T00:11:24.074Z,32.28
2023-02-11T00:12:26.061Z,27.67
2023-02-11T00:13:27.786Z,29.80
2023-02-11T00:14:29.393Z,32.00
2023-02-11T00:15:31.083Z,27.65
2023-02-11T00:16:32.917Z,32.05
2023-02-11T00:17:35.746Z,34.97
2023-02-11T00:18:37.479Z,36.90
2023-02-11T00:19:39.939Z,34.67
2023-02-11T00:20:42.092Z,35.72
2023-02-11T00:21:43.647Z,36.97
2023-02-11T00:22:45.433Z,42.63
2023-02-11T00:23:47.892Z,37.30
2023-02-11T00:24:49.506Z,42.60
2023-02-11T00:25:51.320Z,41.55
2023-02-11T00:26:53.138Z,42.58
2023-02-11T00:27:54.719Z,48.22
2023-02-11T00:28:57.141Z,45.03
2023-02-11T00:30:00.551Z,46.30
2023-02-11T00:31:02.656Z,52.60
2023-02-11T00:32:05.387Z,46.83
2023-02-11T00:33:07.357Z,47.08
2023-02-11T00:34:08.959Z,58.80
2023-02-11T00:35:10.524Z,45.00
2023-02-11T00:36:16.387Z,40.95
2023-02-11T00:37:17.903Z,46.95
2023-02-11T00:38:19.577Z,33.90
2023-02-11T00:39:21.127Z,30.63
2023-02-11T00:40:22.832Z,34.97
2023-02-11T00:41:26.042Z,33.08
2023-02-11T00:42:27.633Z,33.42
2023-02-11T00:43:29.218Z,31.15
2023-02-11T00:44:30.867Z,29.08
2023-02-11T00:45:32.579Z,39.85
2023-02-11T00:46:34.257Z,33.50
2023-02-11T00:47:36.202Z,28.27
2023-02-11T00:48:38.017Z,29.98
2023-02-11T00:49:40.432Z,27.88
2023-02-11T00:50:42.070Z,30.67
2023-02-11T00:51:43.632Z,31.75
2023-02-11T00:52:45.218Z,28.77
2023-02-11T00:53:46.775Z,29.90
2023-02-11T00:54:48.324Z,28.02
2023-02-11T00:55:50.142Z,27.00
2023-02-11T00:56:51.767Z,30.60
2023-02-11T00:57:53.435Z,32.72
2023-02-11T00:58:55.109Z,30.75
2023-02-11T00:59:56.672Z,34.35
2023-02-11T01:00:58.358Z,32.72
2023-02-11T01:01:59.993Z,30.00
2023-02-11T01:03:01.581Z,32.97
2023-02-11T01:04:03.211Z,41.03
2023-02-11T01:05:05.558Z,41.55
2023-02-11T01:06:08.812Z,29.75
2023-02-11T01:07:10.450Z,40.80
2023-02-11T01:08:12.425Z,37.10
2023-02-11T01:09:13.945Z,31.25
2023-02-11T01:10:15.949Z,31.20
2023-02-11T01:11:20.362Z,27.90
2023-02-11T01:12:22.549Z,30.13
2023-02-11T01:13:25.147Z,33.00
2023-02-11T01:14:26.662Z,32.78
2023-02-11T01:15:28.368Z,27.90
2023-02-11T01:16:30.058Z,27.92
2023-02-11T01:17:31.693Z,32.42
2023-02-11T01:18:33.643Z,30.23
2023-02-11T01:19:37.415Z,31.00
2023-02-11T01:20:38.956Z,32.92
2023-02-11T01:21:40.478Z,34.95
2023-02-11T01:22:42.450Z,36.05
2023-02-11T01:23:44.124Z,38.08
2023-02-11T01:24:45.651Z,33.17
2023-02-11T01:25:47.648Z,37.83
2023-02-11T01:26:49.256Z,32.28
2023-02-11T01:27:50.968Z,36.35
2023-02-11T01:28:52.546Z,37.38
2023-02-11T01:29:54.105Z,30.63
2023-02-11T01:30:56.675Z,26.05
2023-02-11T01:31:58.365Z,35.00
2023-02-11T01:32:59.964Z,30.98
2023-02-11T01:34:01.635Z,30.52
2023-02-11T01:35:03.826Z,31.70
2023-02-11T01:36:06.223Z,34.10
2023-02-11T01:37:07.890Z,27.67
2023-02-11T01:38:16.557Z,30.30
2023-02-11T01:39:18.195Z,27.73
2023-02-11T01:40:19.775Z,24.33
2023-02-11T01:41:21.503Z,25.52
2023-02-11T01:42:23.655Z,35.05
2023-02-11T01:43:26.549Z,30.60
2023-02-11T01:44:33.476Z,35.47
2023-02-11T01:45:50.119Z,31.60
2023-02-11T01:46:52.325Z,37.53
2023-02-11T01:47:53.924Z,36.42
2023-02-11T01:49:11.592Z,33.13
2023-02-11T01:50:13.395Z,31.48
2023-02-11T01:51:21.064Z,30.05
2023-02-11T01:52:37.129Z,27.88
2023-02-11T01:53:57.560Z,24.17
2023-02-11T01:55:22.065Z,24.13
2023-02-11T01:56:43.824Z,25.05
2023-02-11T01:57:51.271Z,29.15
2023-02-11T01:58:59.311Z,29.35
2023-02-11T02:00:03.938Z,30.15
2023-02-11T02:01:08.391Z,31.40
2023-02-11T02:02:12.732Z,24.92
2023-02-11T02:03:22.464Z,32.97
2023-02-11T02:04:31.461Z,30.35
2023-02-11T02:05:39.241Z,33.35
2023-02-11T02:06:46.285Z,31.70
2023-02-11T02:08:15.818Z,31.63
2023-02-11T02:09:25.573Z,31.38
2023-02-11T02:10:29.096Z,28.63
2023-02-11T02:11:31.015Z,27.48
2023-02-11T02:12:32.641Z,33.17
2023-02-11T02:13:35.606Z,29.08
2023-02-11T02:14:41.471Z,29.83
2023-02-11T02:15:53.372Z,28.67
2023-02-11T02:16:55.330Z,28.75
2023-02-11T02:18:24.656Z,31.92
2023-02-11T02:20:02.372Z,31.70
2023-02-11T02:21:42.736Z,31.15
2023-02-11T02:22:55.143Z,34.65
2023-02-11T02:24:15.302Z,37.33
2023-02-11T02:25:38.465Z,33.58
2023-02-11T02:27:10.968Z,31.25
2023-02-11T02:28:18.555Z,34.25
2023-02-11T02:29:20.112Z,30.45
2023-02-11T02:30:27.864Z,30.55
2023-02-11T02:31:53.455Z,27.95
2023-02-11T02:33:22.268Z,34.63
2023-02-11T02:34:56.395Z,29.38
2023-02-11T02:35:57.905Z,28.27
2023-02-11T02:37:08.236Z,31.38
2023-02-11T02:38:34.550Z,23.13
2023-02-11T02:39:37.467Z,24.30
2023-02-11T02:40:54.762Z,24.63
2023-02-11T02:41:57.264Z,28.70
2023-02-11T02:43:00.894Z,26.55
2023-02-11T02:44:03.085Z,29.63
2023-02-11T02:45:05.269Z,35.30
2023-02-11T02:46:32.543Z,34.47
2023-02-11T02:47:34.137Z,32.63
2023-02-11T02:48:35.851Z,30.08
2023-02-11T02:49:37.385Z,32.17
2023-02-11T02:50:39.152Z,30.38
2023-02-11T02:51:55.711Z,34.55
2023-02-11T02:53:20.530Z,33.33
2023-02-11T02:54:40.683Z,31.23
2023-02-11T02:56:00.298Z,28.60
2023-02-11T02:57:34.906Z,31.17
2023-02-11T02:58:52.206Z,31.27
2023-02-11T02:59:59.781Z,36.00
2023-02-11T03:01:36.850Z,33.50
2023-02-11T03:02:59.874Z,33.00
2023-02-11T03:04:22.779Z,39.42
2023-02-11T03:05:49.745Z,35.60
2023-02-11T03:07:33.575Z,33.10
2023-02-11T03:08:51.378Z,34.13
2023-02-11T03:10:05.727Z,35.53
2023-02-11T03:11:09.545Z,31.42
2023-02-11T03:12:13.148Z,32.45
2023-02-11T03:13:19.482Z,31.60
2023-02-11T03:14:23.542Z,35.95
2023-02-11T03:15:28.387Z,33.53
2023-02-11T03:16:30.871Z,35.33
2023-02-11T03:17:35.081Z,34.85
2023-02-11T03:18:41.788Z,33.10
2023-02-11T03:19:46.466Z,35.88
2023-02-11T03:20:53.310Z,32.00
2023-02-11T03:21:56.831Z,30.63
2023-02-11T03:23:12.657Z,33.30
2023-02-11T03:24:22.224Z,31.33
2023-02-11T03:25:30.266Z,34.67
2023-02-11T03:26:38.846Z,34.55
2023-02-11T03:28:01.491Z,30.98
2023-02-11T03:29:09.574Z,31.67
2023-02-11T03:30:26.793Z,31.33
2023-02-11T03:31:35.695Z,31.98
2023-02-11T03:32:42.026Z,33.15
2023-02-11T03:34:00.114Z,32.22
2023-02-11T03:35:23.227Z,33.35
2023-02-11T03:36:34.375Z,32.80
2023-02-11T03:37:45.384Z,32.42
2023-02-11T03:38:55.693Z,32.88
2023-02-11T03:40:05.343Z,26.58
2023-02-11T03:41:10.009Z,31.40
2023-02-11T03:42:14.662Z,24.40
2023-02-11T03:43:31.976Z,27.42
2023-02-11T03:44:40.036Z,25.02
2023-02-11T03:45:41.709Z,24.85
2023-02-11T03:46:47.992Z,26.17
2023-02-11T03:47:56.838Z,28.75
2023-02-11T03:49:09.710Z,29.17
2023-02-11T03:50:14.778Z,30.00
2023-02-11T03:51:17.278Z,27.00
2023-02-11T03:52:21.592Z,26.20
2023-02-11T03:53:23.754Z,29.17
2023-02-11T03:54:30.224Z,32.90
2023-02-11T03:55:37.003Z,26.83
2023-02-11T03:56:52.143Z,29.15
2023-02-11T03:57:54.099Z,41.03
2023-02-11T03:58:56.012Z,32.78
2023-02-11T03:59:59.413Z,39.22
2023-02-11T04:01:02.789Z,37.10
2023-02-11T04:02:04.388Z,38.50
2023-02-11T04:03:06.684Z,34.15
2023-02-11T04:04:08.241Z,37.17
2023-02-11T04:05:15.274Z,49.10
2023-02-11T04:06:16.861Z,39.25
2023-02-11T04:07:18.572Z,40.45
2023-02-11T04:08:20.926Z,36.80
2023-02-11T04:09:22.499Z,41.53
2023-02-11T04:10:24.100Z,41.95
2023-02-11T04:11:25.651Z,48.90
2023-02-11T04:12:27.199Z,45.17
2023-02-11T04:13:28.772Z,40.42
2023-02-11T04:14:30.325Z,40.95
2023-02-11T04:15:32.377Z,38.22
2023-02-11T04:16:33.982Z,38.85
2023-02-11T04:17:35.633Z,34.53
2023-02-11T04:18:37.173Z,33.15
2023-02-11T04:19:39.091Z,30.33
2023-02-11T04:20:40.669Z,29.83
2023-02-11T04:21:42.171Z,32.85
2023-02-11T04:22:43.728Z,28.55
2023-02-11T04:23:45.249Z,29.80
2023-02-11T04:24:46.918Z,28.45
2023-02-11T04:25:51.538Z,27.40
2023-02-11T04:26:53.565Z,29.30
2023-02-11T04:27:55.236Z,25.65
2023-02-11T04:28:56.806Z,28.15
2023-02-11T04:29:58.494Z,29.83
2023-02-11T04:31:00.164Z,26.42
2023-02-11T04:32:01.779Z,26.50
2023-02-11T04:33:03.526Z,27.17
2023-02-11T04:34:05.190Z,29.58
2023-02-11T04:35:07.050Z,27.63
2023-02-11T04:36:08.761Z,30.45
2023-02-11T04:37:10.589Z,41.17
2023-02-11T04:38:12.182Z,33.00
2023-02-11T04:39:13.862Z,36.75
2023-02-11T04:40:15.509Z,33.65
2023-02-11T04:41:17.133Z,32.88
2023-02-11T04:42:18.722Z,33.33
2023-02-11T04:43:20.322Z,34.50
2023-02-11T04:44:21.919Z,32.03
2023-02-11T04:45:23.468Z,33.00
2023-02-11T04:46:25.306Z,33.97
2023-02-11T04:47:26.899Z,30.10
2023-02-11T04:48:28.452Z,29.17
2023-02-11T04:49:29.995Z,33.78
2023-02-11T04:50:31.581Z,35.50
2023-02-11T04:51:33.155Z,29.02
2023-02-11T04:52:34.705Z,33.60
2023-02-11T04:53:36.245Z,28.23
2023-02-11T04:54:37.842Z,34.88
2023-02-11T04:55:39.397Z,33.50
2023-02-11T04:56:40.955Z,29.45
2023-02-11T04:57:42.466Z,31.33
2023-02-11T04:58:44.005Z,29.05
2023-02-11T04:59:45.549Z,33.90
2023-02-11T05:00:47.504Z,32.92
2023-02-11T05:01:49.989Z,33.22
2023-02-11T05:02:51.552Z,30.88
2023-02-11T05:03:53.157Z,30.85
2023-02-11T05:04:54.733Z,32.28
2023-02-11T05:05:56.367Z,31.77
2023-02-11T05:06:58.811Z,32.33
2023-02-11T05:08:00.405Z,32.15
2023-02-11T05:09:02.001Z,36.38
2023-02-11T05:10:04.188Z,33.65
2023-02-11T05:11:06.253Z,34.17
2023-02-11T05:12:08.821Z,35.15
2023-02-11T05:13:10.338Z,32.63
2023-02-11T05:14:11.970Z,33.78
2023-02-11T05:15:13.512Z,32.80
2023-02-11T05:16:16.304Z,35.03
2023-02-11T05:17:18.618Z,37.50
2023-02-11T05:18:20.203Z,39.80
2023-02-11T05:19:21.772Z,39.63
2023-02-11T05:20:23.620Z,33.10
2023-02-11T05:21:25.256Z,39.40
2023-02-11T05:22:26.844Z,31.60
2023-02-11T05:23:28.402Z,34.97
2023-02-11T05:24:33.339Z,36.38
2023-02-11T05:25:35.131Z,31.83
2023-02-11T05:26:36.695Z,35.03
2023-02-11T05:27:38.413Z,34.78
2023-02-11T05:28:40.148Z,36.10
2023-02-11T05:29:41.652Z,33.85
2023-02-11T05:30:43.337Z,34.97
2023-02-11T05:31:44.914Z,34.83
2023-02-11T05:32:46.491Z,35.78
2023-02-11T05:33:48.044Z,32.20
2023-02-11T05:34:49.594Z,36.30
2023-02-11T05:35:51.777Z,33.65
2023-02-11T05:36:53.534Z,37.95
2023-02-11T05:37:55.121Z,41.95
2023-02-11T05:38:56.700Z,35.65
2023-02-11T05:39:58.246Z,35.88
2023-02-11T05:41:00.060Z,38.58
2023-02-11T05:42:01.639Z,38.00
2023-02-11T05:43:03.423Z,44.88
2023-02-11T05:44:04.973Z,40.15
2023-02-11T05:45:07.002Z,45.72
2023-02-11T05:46:08.822Z,43.10
2023-02-11T05:47:10.475Z,41.53
2023-02-11T05:48:12.061Z,40.10
2023-02-11T05:49:13.586Z,39.10
2023-02-11T05:50:15.468Z,34.63
2023-02-11T05:51:17.004Z,38.92
2023-02-11T05:52:18.543Z,36.38
2023-02-11T05:53:20.087Z,39.10
2023-02-11T05:54:21.663Z,35.35
2023-02-11T05:55:23.403Z,36.53
2023-02-11T05:56:24.966Z,37.88
2023-02-11T05:57:26.495Z,43.33
2023-02-11T05:58:28.355Z,38.03
2023-02-11T05:59:30.102Z,38.50
2023-02-11T06:00:31.635Z,37.85
2023-02-11T06:01:33.229Z,40.03
2023-02-11T06:02:34.874Z,41.65
2023-02-11T06:03:36.505Z,39.70
2023-02-11T06:04:38.252Z,44.95
2023-02-11T06:05:39.862Z,48.20
2023-02-11T06:06:41.417Z,55.38
2023-02-11T06:07:43.217Z,45.83
2023-02-11T06:08:44.775Z,43.72
2023-02-11T06:09:46.392Z,44.53
2023-02-11T06:10:47.963Z,44.08
2023-02-11T06:11:49.502Z,47.63
2023-02-11T06:12:51.086Z,42.92
2023-02-11T06:13:52.721Z,43.50
2023-02-11T06:14:54.259Z,45.60
2023-02-11T06:15:57.921Z,39.80
2023-02-11T06:16:59.620Z,56.40
2023-02-11T06:18:01.241Z,49.13
2023-02-11T06:19:02.915Z,47.08
2023-02-11T06:20:07.674Z,38.42
2023-02-11T06:21:11.439Z,39.20
2023-02-11T06:22:13.047Z,37.38
2023-02-11T06:23:14.704Z,43.38
2023-02-11T06:24:21.645Z,47.60
2023-02-11T06:25:30.241Z,42.75
2023-02-11T06:26:32.771Z,43.72
2023-02-11T06:27:34.304Z,38.47
2023-02-11T06:28:36.156Z,42.03
2023-02-11T06:29:37.802Z,29.05
2023-02-11T06:30:39.368Z,33.40
2023-02-11T06:31:41.147Z,30.73
2023-02-11T06:32:45.213Z,35.25
2023-02-11T06:33:47.382Z,33.15
2023-02-11T06:34:48.969Z,33.20
2023-02-11T06:35:51.159Z,34.67
2023-02-11T06:36:52.890Z,37.25
2023-02-11T06:37:54.637Z,36.85
2023-02-11T06:38:56.175Z,33.78
2023-02-11T06:39:57.814Z,36.78
2023-02-11T06:40:59.371Z,39.35
2023-02-11T06:42:00.899Z,36.30
2023-02-11T06:43:02.537Z,36.03
2023-02-11T06:44:04.401Z,39.35
2023-02-11T06:45:08.980Z,41.42
2023-02-11T06:46:10.618Z,40.38
2023-02-11T06:47:13.032Z,41.78
2023-02-11T06:48:14.770Z,40.97
2023-02-11T06:49:16.766Z,48.97
2023-02-11T06:50:18.373Z,41.70
2023-02-11T06:51:19.898Z,42.53
2023-02-11T06:52:21.523Z,42.42
2023-02-11T06:53:23.130Z,44.83
2023-02-11T06:54:24.738Z,44.50
2023-02-11T06:55:26.530Z,44.95
2023-02-11T06:56:28.192Z,46.47
2023-02-11T06:57:31.007Z,40.30
2023-02-11T06:58:33.350Z,53.53
2023-02-11T06:59:34.951Z,53.40
2023-02-11T07:00:37.453Z,56.55
2023-02-11T07:01:39.021Z,51.92
2023-02-11T07:02:40.622Z,63.17
2023-02-11T07:03:44.675Z,63.15
2023-02-11T07:04:46.303Z,61.30
2023-02-11T07:05:47.937Z,63.88
2023-02-11T07:06:49.532Z,59.63
2023-02-11T07:07:51.079Z,60.05
2023-02-11T07:08:54.334Z,52.72
2023-02-11T07:09:56.030Z,56.60
2023-02-11T07:10:57.568Z,56.47
2023-02-11T07:11:59.496Z,49.13
2023-02-11T07:13:01.097Z,54.00
2023-02-11T07:14:05.832Z,51.05
2023-02-11T07:15:07.750Z,56.20
2023-02-11T07:16:12.636Z,48.23
2023-02-11T07:17:14.701Z,58.30
2023-02-11T07:18:16.475Z,57.10
2023-02-11T07:19:18.031Z,54.53
2023-02-11T07:20:19.631Z,49.90
2023-02-11T07:21:24.343Z,45.93
2023-02-11T07:22:25.925Z,48.57
2023-02-11T07:23:28.361Z,51.00
2023-02-11T07:24:29.872Z,50.33
2023-02-11T07:25:31.493Z,48.27
2023-02-11T07:26:33.042Z,46.57
2023-02-11T07:27:34.684Z,51.33
2023-02-11T07:28:37.084Z,44.83
2023-02-11T07:29:38.713Z,43.47
2023-02-11T07:30:40.295Z,50.17
2023-02-11T07:31:41.962Z,40.30
2023-02-11T07:32:43.598Z,43.63
2023-02-11T07:33:45.965Z,40.07
2023-02-11T07:34:48.620Z,45.10
2023-02-11T07:35:50.423Z,41.97
2023-02-11T07:36:52.127Z,36.00
2023-02-11T07:37:53.648Z,44.33
2023-02-11T07:38:55.283Z,52.07
2023-02-11T07:39:56.854Z,52.67
2023-02-11T07:41:02.946Z,47.90
2023-02-11T07:42:04.808Z,98.87
2023-02-11T07:43:06.396Z,50.43
2023-02-11T07:44:08.013Z,53.30
2023-02-11T07:45:09.730Z,47.60
2023-02-11T07:46:15.318Z,53.17
2023-02-11T07:47:16.980Z,52.73
2023-02-11T07:48:18.578Z,49.13
2023-02-11T07:49:20.107Z,55.27
2023-02-11T07:50:21.684Z,54.43
2023-02-11T07:51:29.117Z,55.83
2023-02-11T07:52:31.258Z,54.90
2023-02-11T07:53:32.840Z,53.70
2023-02-11T07:54:34.520Z,56.53
2023-02-11T07:55:36.080Z,50.73
2023-02-11T07:56:37.649Z,45.13
2023-02-11T07:57:39.207Z,45.47
2023-02-11T07:58:43.159Z,49.77
2023-02-11T07:59:44.758Z,46.17
2023-02-11T08:00:46.496Z,46.87
2023-02-11T08:01:48.191Z,47.17
2023-02-11T08:02:49.875Z,45.50
2023-02-11T08:03:52.168Z,42.60
2023-02-11T08:04:53.727Z,45.33
2023-02-11T08:05:55.330Z,37.73
2023-02-11T08:06:59.111Z,35.73
2023-02-11T08:08:00.817Z,40.00
2023-02-11T08:09:07.625Z,47.10
2023-02-11T08:10:09.313Z,48.33
2023-02-11T08:11:14.376Z,52.83
2023-02-11T08:12:15.955Z,47.73
2023-02-11T08:13:17.490Z,44.33
2023-02-11T08:14:20.447Z,46.90
2023-02-11T08:15:22.075Z,48.40
2023-02-11T08:16:26.368Z,45.90
2023-02-11T08:17:27.974Z,45.00
2023-02-11T08:18:30.607Z,48.23
2023-02-11T08:19:34.871Z,45.87
2023-02-11T08:20:36.711Z,41.00
2023-02-11T08:21:39.501Z,37.30
2023-02-11T08:22:41.202Z,42.93
2023-02-11T08:23:44.389Z,38.93
2023-02-11T08:24:45.951Z,36.23
2023-02-11T08:25:47.478Z,35.90
2023-02-11T08:26:49.577Z,39.07
2023-02-11T08:27:51.147Z,36.83
2023-02-11T08:28:54.342Z,35.53
2023-02-11T08:29:56.163Z,36.03
2023-02-11T08:30:58.044Z,35.20
2023-02-11T08:31:59.827Z,34.50
2023-02-11T08:33:01.590Z,37.63
2023-02-11T08:34:03.586Z,28.10
2023-02-11T08:35:07.900Z,35.10
2023-02-11T08:36:10.822Z,32.87
2023-02-11T08:37:12.408Z,33.97
2023-02-11T08:38:13.932Z,34.10
2023-02-11T08:39:20.493Z,34.57
2023-02-11T08:40:22.817Z,38.40
2023-02-11T08:41:24.505Z,38.67
2023-02-11T08:42:26.082Z,32.93
2023-02-11T08:43:27.618Z,34.00
2023-02-11T08:44:30.061Z,35.63
2023-02-11T08:45:32.385Z,34.33
2023-02-11T08:46:34.036Z,37.23
2023-02-11T08:47:36.479Z,34.97
2023-02-11T08:48:38.198Z,29.17
2023-02-11T08:49:41.865Z,35.27
2023-02-11T08:50:43.474Z,36.30
2023-02-11T08:51:46.031Z,35.17
2023-02-11T08:52:47.595Z,30.03
2023-02-11T08:53:49.283Z,35.83
2023-02-11T08:54:51.199Z,35.67
2023-02-11T08:55:55.495Z,36.60
2023-02-11T08:56:58.290Z,35.30
2023-02-11T08:57:59.921Z,35.30
2023-02-11T08:59:01.920Z,34.53
2023-02-11T09:00:04.684Z,31.93
2023-02-11T09:01:32.619Z,26.87
2023-02-11T09:02:34.177Z,28.57
2023-02-11T09:03:35.771Z,30.17
2023-02-11T09:04:37.320Z,28.53
2023-02-11T09:05:47.259Z,31.07
2023-02-11T09:06:49.060Z,29.53
2023-02-11T09:07:50.663Z,30.20
2023-02-11T09:08:54.774Z,31.20
2023-02-11T09:09:56.288Z,29.67
2023-02-11T09:10:57.910Z,30.60
2023-02-11T09:12:01.311Z,29.50
2023-02-11T09:13:03.150Z,34.73
2023-02-11T09:14:04.817Z,35.10
2023-02-11T09:15:06.774Z,36.30
2023-02-11T09:16:08.698Z,37.07
2023-02-11T09:17:10.342Z,32.33
2023-02-11T09:18:12.010Z,30.70
2023-02-11T09:19:13.905Z,23.83
2023-02-11T09:20:15.600Z,30.73
2023-02-11T09:21:18.385Z,27.20
2023-02-11T09:22:19.944Z,24.60
2023-02-11T09:23:21.492Z,25.83
2023-02-11T09:24:23.067Z,26.50
2023-02-11T09:25:25.685Z,28.10
2023-02-11T09:26:32.541Z,24.17
2023-02-11T09:27:34.114Z,25.43
2023-02-11T09:28:35.920Z,25.10
2023-02-11T09:29:37.594Z,23.70
2023-02-11T09:30:39.516Z,28.03
2023-02-11T09:31:41.329Z,21.70
2023-02-11T09:32:42.999Z,25.43
2023-02-11T09:33:49.536Z,26.80
2023-02-11T09:34:51.151Z,26.53
2023-02-11T09:35:52.706Z,24.43
2023-02-11T09:36:54.366Z,23.30
2023-02-11T09:37:56.062Z,28.87
2023-02-11T09:38:59.810Z,28.67
2023-02-11T09:40:01.421Z,22.93
2023-02-11T09:41:08.086Z,26.20
2023-02-11T09:42:45.206Z,25.20
2023-02-11T09:43:48.277Z,27.83
2023-02-11T09:44:50.204Z,23.60
2023-02-11T09:45:55.887Z,24.70
2023-02-11T09:47:01.519Z,28.23
2023-02-11T09:48:12.594Z,25.00
2023-02-11T09:49:22.640Z,22.93
2023-02-11T09:50:32.580Z,21.07
2023-02-11T09:51:48.260Z,22.03
2023-02-11T09:53:14.702Z,22.97
2023-02-11T09:54:53.849Z,23.53
2023-02-11T09:55:59.723Z,22.37
2023-02-11T09:57:02.105Z,23.43
2023-02-11T09:58:11.544Z,22.10
2023-02-11T09:59:17.667Z,18.77
2023-02-11T10:00:25.106Z,19.00
2023-02-11T10:01:39.906Z,26.73
2023-02-11T10:03:15.819Z,22.40
2023-02-11T10:04:31.786Z,17.23
2023-02-11T10:05:36.161Z,18.60
2023-02-11T10:06:56.444Z,16.93
2023-02-11T10:08:09.880Z,20.57
2023-02-11T10:09:20.465Z,16.73
2023-02-11T10:10:40.592Z,18.93
2023-02-11T10:12:12.626Z,19.33
2023-02-11T10:14:07.610Z,17.90
2023-02-11T10:15:17.936Z,18.77
2023-02-11T10:16:34.072Z,17.67
2023-02-11T10:17:50.775Z,20.40
2023-02-11T10:19:27.278Z,22.00
2023-02-11T10:20:55.674Z,22.17
2023-02-11T10:22:06.126Z,20.30
2023-02-11T10:23:17.191Z,19.37
2023-02-11T10:24:20.398Z,18.80
2023-02-11T10:25:46.515Z,20.77
2023-02-11T10:26:49.080Z,17.97
2023-02-11T10:27:52.362Z,21.03
2023-02-11T10:28:55.710Z,18.53
2023-02-11T10:30:08.533Z,18.77
2023-02-11T10:31:18.108Z,15.40
2023-02-11T10:33:04.636Z,16.97
2023-02-11T10:34:10.481Z,17.60
2023-02-11T10:35:22.068Z,20.70
2023-02-11T10:36:28.148Z,18.17
2023-02-11T10:37:30.775Z,19.10
2023-02-11T10:38:33.859Z,19.83
2023-02-11T10:39:35.370Z,20.17
2023-02-11T10:40:37.124Z,18.67
2023-02-11T10:41:51.244Z,20.30
2023-02-11T10:42:56.226Z,21.43
2023-02-11T10:44:00.458Z,20.60
2023-02-11T10:45:06.297Z,19.00
2023-02-11T10:46:16.398Z,20.53
2023-02-11T10:47:22.173Z,21.20
2023-02-11T10:48:44.928Z,19.60
2023-02-11T10:49:47.395Z,19.23
2023-02-11T10:50:49.065Z,20.67
2023-02-11T10:52:08.223Z,22.10
2023-02-11T10:53:17.380Z,20.40
2023-02-11T10:54:24.386Z,23.77
2023-02-11T10:55:27.880Z,21.93
2023-02-11T10:56:44.503Z,24.23
2023-02-11T10:57:59.344Z,17.87
2023-02-11T10:59:05.457Z,18.73
2023-02-11T11:00:23.061Z,20.47
2023-02-11T11:01:39.462Z,19.17
2023-02-11T11:02:44.549Z,20.30
2023-02-11T11:03:50.125Z,19.30
2023-02-11T11:04:57.633Z,14.67
2023-02-11T11:06:00.935Z,17.70
2023-02-11T11:07:20.100Z,18.60
2023-02-11T11:08:22.128Z,16.60
2023-02-11T11:09:43.338Z,17.40
2023-02-11T11:10:47.843Z,17.03
2023-02-11T11:11:53.912Z,16.23
2023-02-11T11:12:55.578Z,18.43
2023-02-11T11:14:00.260Z,16.40
2023-02-11T11:15:11.266Z,17.97
2023-02-11T11:16:12.836Z,16.40
2023-02-11T11:17:19.026Z,15.07
2023-02-11T11:18:23.304Z,18.57
2023-02-11T11:19:25.888Z,15.47
2023-02-11T11:20:29.804Z,16.23
2023-02-11T11:21:41.634Z,14.17
2023-02-11T11:22:43.934Z,17.23
2023-02-11T11:23:52.767Z,15.50
2023-02-11T11:24:55.942Z,17.10
2023-02-11T11:26:05.088Z,17.07
2023-02-11T11:27:07.098Z,15.50
2023-02-11T11:28:22.044Z,16.57
2023-02-11T11:29:38.069Z,15.07
2023-02-11T11:30:42.825Z,14.33
2023-02-11T11:32:05.580Z,13.87
2023-02-11T11:33:20.999Z,15.87
2023-02-11T11:34:29.881Z,15.10
2023-02-11T11:35:33.194Z,13.53
2023-02-11T11:36:38.076Z,16.50
2023-02-11T11:37:39.718Z,16.53
2023-02-11T11:38:50.390Z,14.43
2023-02-11T11:40:09.747Z,16.87
2023-02-11T11:41:22.616Z,15.77
2023-02-11T11:42:29.900Z,15.60
2023-02-11T11:43:31.995Z,15.00
2023-02-11T11:44:38.476Z,22.03
2023-02-11T11:45:52.976Z,18.57
2023-02-11T11:47:13.543Z,24.00
2023-02-11T11:48:34.355Z,20.87
2023-02-11T11:49:51.154Z,20.07
2023-02-11T11:51:02.060Z,21.37
2023-02-11T11:52:56.453Z,21.23
2023-02-11T11:54:03.081Z,24.13
2023-02-11T11:55:13.236Z,22.57
2023-02-11T11:56:19.924Z,20.27
2023-02-11T11:57:28.326Z,21.40
2023-02-11T11:58:32.259Z,22.63
2023-02-11T11:59:33.806Z,21.20
2023-02-11T12:00:47.502Z,19.80
2023-02-11T12:02:08.496Z,18.63
2023-02-11T12:03:40.807Z,21.60
2023-02-11T12:05:02.946Z,23.40
2023-02-11T12:06:19.771Z,23.03
2023-02-11T12:07:26.848Z,22.37
2023-02-11T12:08:50.155Z,16.93
2023-02-11T12:10:19.602Z,20.17
2023-02-11T12:11:34.738Z,21.90
2023-02-11T12:13:10.335Z,23.40
2023-02-11T12:14:49.529Z,19.37
2023-02-11T12:16:03.028Z,18.93
2023-02-11T12:17:22.410Z,22.50
2023-02-11T12:18:38.173Z,23.27
2023-02-11T12:20:10.138Z,20.07
2023-02-11T12:21:31.831Z,19.97
2023-02-11T12:22:47.400Z,21.27
2023-02-11T12:24:10.894Z,21.53
2023-02-11T12:25:39.710Z,19.37
2023-02-11T12:26:49.616Z,18.23
2023-02-11T12:28:15.307Z,19.90
2023-02-11T12:29:36.994Z,18.50
2023-02-11T12:30:53.562Z,18.67
2023-02-11T12:32:17.906Z,17.80
2023-02-11T12:33:42.059Z,22.10
2023-02-11T12:35:02.091Z,17.47
2023-02-11T12:36:20.696Z,22.60
2023-02-11T12:37:33.054Z,19.00
2023-02-11T12:38:38.021Z,19.27
2023-02-11T12:39:42.282Z,20.27
2023-02-11T12:41:05.327Z,17.33
2023-02-11T12:42:37.598Z,18.33
2023-02-11T12:43:44.486Z,19.27
2023-02-11T12:44:55.849Z,20.80
2023-02-11T12:46:31.291Z,16.53
2023-02-11T12:47:56.531Z,19.97
2023-02-11T12:49:31.061Z,16.67
2023-02-11T12:50:44.622Z,18.30
2023-02-11T12:52:04.518Z,17.47
2023-02-11T12:53:26.671Z,19.33
2023-02-11T12:54:47.736Z,19.83
2023-02-11T12:55:56.148Z,18.47
2023-02-11T12:57:15.682Z,17.90
2023-02-11T12:58:25.444Z,16.90
2023-02-11T12:59:56.711Z,16.43
2023-02-11T13:01:06.251Z,19.20
2023-02-11T13:02:37.467Z,19.60
2023-02-11T13:04:00.292Z,19.23
2023-02-11T13:05:19.638Z,17.77
2023-02-11T13:06:29.594Z,17.53
2023-02-11T13:07:40.650Z,18.57
2023-02-11T13:08:51.443Z,16.40
2023-02-11T13:10:02.190Z,17.93
2023-02-11T13:11:20.217Z,22.03
2023-02-11T13:12:40.670Z,23.23
2023-02-11T13:13:44.977Z,17.80
2023-02-11T13:14:48.708Z,22.30
2023-02-11T13:15:55.854Z,18.40
2023-02-11T13:16:58.702Z,14.77
2023-02-11T13:18:30.866Z,17.47
2023-02-11T13:19:48.449Z,18.67
2023-02-11T13:21:08.530Z,18.73
2023-02-11T13:22:18.790Z,17.77
2023-02-11T13:23:25.910Z,20.10
2023-02-11T13:25:06.165Z,20.63
2023-02-11T13:26:28.419Z,16.77
2023-02-11T13:27:38.373Z,18.23
2023-02-11T13:29:01.007Z,16.57
2023-02-11T13:30:11.206Z,13.67
2023-02-11T13:31:16.103Z,16.53
2023-02-11T13:32:17.739Z,16.30
2023-02-11T13:33:30.283Z,22.03
2023-02-11T13:34:43.718Z,18.07
2023-02-11T13:35:57.408Z,18.23
2023-02-11T13:36:59.099Z,18.50
2023-02-11T13:38:03.586Z,19.33
2023-02-11T13:39:06.564Z,17.73
2023-02-11T13:40:26.485Z,16.73
2023-02-11T13:41:31.908Z,25.83
2023-02-11T13:42:47.694Z,23.73
2023-02-11T13:44:23.727Z,21.43
2023-02-11T13:45:29.410Z,29.83
2023-02-11T13:46:50.820Z,18.50
2023-02-11T13:48:01.015Z,22.67
2023-02-11T13:49:02.559Z,15.83
2023-02-11T13:50:07.594Z,15.33
2023-02-11T13:51:12.664Z,18.17
2023-02-11T13:52:29.398Z,17.37
2023-02-11T13:53:54.894Z,18.90
2023-02-11T13:55:02.949Z,16.33
2023-02-11T13:56:09.618Z,18.37
2023-02-11T13:57:20.044Z,17.30
2023-02-11T13:58:29.043Z,17.70
2023-02-11T13:59:33.597Z,17.50
2023-02-11T14:00:35.281Z,19.33
2023-02-11T14:02:08.043Z,16.67
2023-02-11T14:03:31.056Z,15.90
2023-02-11T14:04:52.710Z,18.00
2023-02-11T14:06:37.865Z,17.20
2023-02-11T14:08:22.539Z,15.00
2023-02-11T14:09:34.233Z,17.30
2023-02-11T14:10:41.631Z,14.87
2023-02-11T14:11:49.063Z,18.53
2023-02-11T14:13:19.902Z,15.70
2023-02-11T14:14:35.034Z,16.93
2023-02-11T14:15:40.467Z,18.70
2023-02-11T14:17:11.398Z,19.77
2023-02-11T14:18:37.750Z,28.10
2023-02-11T14:19:43.741Z,15.33
2023-02-11T14:20:45.420Z,13.80
2023-02-11T14:21:47.083Z,15.27
2023-02-11T14:22:50.799Z,18.90
2023-02-11T14:23:56.210Z,19.60
2023-02-11T14:25:03.203Z,15.93